Terminal Aerodrome Forecast
Issued by NWS

Home | Current Version | Previous Version | Text Only | Print | Product List | Glossary On
Versions: 1 2 3 4 5 6 7 8 9 10 11 12
000
FTUS45 KVEF 301723
TAFDAG
TAF
KDAG 301723Z 3018/3118 07008KT P6SM BKN250
     FM302100 08011G18KT P6SM SCT250
     FM310100 26012KT P6SM SCT250
     FM311200 28008KT P6SM SKC=

USA.gov is the U.S. government's official web portal to all federal, state and local government web resources and services.